Terminal Aerodrome Forecast
Issued by NWS

Home | Current Version | Previous Version | Text Only | Print | Product List | Glossary On
Versions: 1 2 3 4 5 6 7 8 9 10 11 12 13 14 15 16
000
FTUS44 KTSA 271700
TAFMLC
TAF
KMLC 271720Z 2718/2818 12004KT P6SM SKC
     FM272200 17004KT P6SM FEW250
     FM281500 18012G18KT P6SM SCT250=

USA.gov is the U.S. government's official web portal to all federal, state and local government web resources and services.